KWHP/WHP METAR and TAF weather

Enter ICAO airport designator
Station Type Date Time Source
KWHP METAR 2020/07/06 03:00 UTC NOAA

KWHP 060300Z 10008KT 10SM SKC 29/08 A2989


Station Type Date Time Source
KWHP Decoded METAR 2020/07/06 03:00 UTC NOAA

Los Angeles, Whiteman Airport, CA, United States (KWHP) 34-15N 118-24W
Jul 05, 2020 - 11:00 PM EDT / 2020.07.06 0300 UTC
Wind: from the E (100 degrees) at 9 MPH (8 KT):0
Visibility: 10 mile(s):0
Sky conditions: clear
Temperature: 84 F (29 C)
Dew Point: 46 F (8 C)
Relative Humidity: 26%
Pressure (altimeter): 29.89 in. Hg (1012 hPa)
ob: KWHP 060300Z 10008KT 10SM SKC 29/08 A2989
cycle: 3

Station Type Date Time Source
KWHP TAF UTC NOAA

Error!

Example: see airport list